Time;durP1;ratioP1;P1;durP2;ratioP2;P2;SDS_P1;SDS_P2;PMS_P1;PMS_P2;Temp;Humidity;BMP_temperature;BMP_pressure;BME280_temperature;BME280_humidity;BME280_pressure;Samples;Min_cycle;Max_cycle;Signal;HPM_P1;HPM_P2
2021/11/27 00:01:56;;;;;;;3.97;3.00;;;;;;;-140.79;100.00;63287.88;5005981;28;21415;-52
2021/11/27 00:04:21;;;;;;;4.72;3.63;;;;;;;-140.79;100.00;63287.88;5005878;28;20045;-53
2021/11/27 00:06:47;;;;;;;4.10;3.30;;;;;;;-140.79;100.00;63287.88;5005663;28;20026;-52
2021/11/27 00:09:12;;;;;;;4.70;3.13;;;;;;;-140.79;100.00;63287.88;5005670;28;20030;-51
2021/11/27 00:11:38;;;;;;;4.13;3.30;;;;;;;-140.79;100.00;63287.88;5005376;28;20044;-51
2021/11/27 00:14:05;;;;;;;5.43;3.53;;;;;;;-140.79;100.00;63287.88;5005802;28;20066;-52
2021/11/27 00:16:30;;;;;;;4.53;3.42;;;;;;;-140.79;100.00;63287.88;5005650;28;20438;-51
2021/11/27 00:18:56;;;;;;;4.68;3.20;;;;;;;-140.79;100.00;63287.88;5005541;28;20401;-52
2021/11/27 00:21:21;;;;;;;4.20;3.17;;;;;;;-140.79;100.00;63287.88;5004845;28;20018;-52
2021/11/27 00:23:48;;;;;;;4.82;3.15;;;;;;;-140.79;100.00;63287.88;5005918;28;20022;-51
2021/11/27 00:26:13;;;;;;;4.25;3.15;;;;;;;-140.79;100.00;63287.88;5005554;28;20052;-52
2021/11/27 00:28:39;;;;;;;4.00;3.20;;;;;;;-140.79;100.00;63287.88;5005632;28;20422;-52
2021/11/27 00:31:09;;;;;;;4.35;2.97;;;;;;;-140.79;100.00;63287.88;5005317;28;20030;-52
2021/11/27 00:33:34;;;;;;;;;;;;;;;-140.79;100.00;63287.88;5005865;28;20057;-52
2021/11/27 00:36:00;;;;;;;5.18;3.10;;;;;;;-140.79;100.00;63287.88;5005189;28;20292;-52
2021/11/27 00:38:26;;;;;;;4.20;2.75;;;;;;;-140.79;100.00;63287.88;5005493;28;20038;-51
2021/11/27 00:40:51;;;;;;;4.50;3.10;;;;;;;-140.79;100.00;63287.88;5005479;28;20034;-52
2021/11/27 00:43:17;;;;;;;4.25;3.08;;;;;;;-140.79;100.00;63287.88;5005206;28;20503;-52
2021/11/27 00:45:43;;;;;;;4.80;3.15;;;;;;;-140.79;100.00;63287.88;5005542;28;20053;-52
2021/11/27 00:48:09;;;;;;;3.80;3.03;;;;;;;-140.79;100.00;63287.88;5005565;28;20243;-52
2021/11/27 00:50:43;;;;;;;3.85;3.20;;;;;;;-140.79;100.00;63287.88;5009586;28;20061;-51
2021/11/27 00:53:09;;;;;;;4.07;3.00;;;;;;;-140.79;100.00;63287.88;5008015;28;20097;-52
2021/11/27 00:55:44;;;;;;;4.47;3.05;;;;;;;-140.79;100.00;63287.88;5007028;28;20014;-52
2021/11/27 00:58:12;;;;;;;3.60;2.88;;;;;;;-140.79;100.00;63287.88;5006211;28;20041;-52
2021/11/27 01:00:42;;;;;;;3.83;2.95;;;;;;;-140.79;100.00;63287.88;5021031;28;20033;-52
2021/11/27 01:03:08;;;;;;;3.88;3.00;;;;;;;-140.79;100.00;63287.88;5025009;28;20033;-52
2021/11/27 01:05:38;;;;;;;3.80;2.90;;;;;;;-140.79;100.00;63287.88;5019404;28;20101;-52
2021/11/27 01:08:04;;;;;;;3.50;2.78;;;;;;;-140.79;100.00;63287.88;5005135;28;20036;-52
2021/11/27 01:10:35;;;;;;;4.78;3.00;;;;;;;-140.79;100.00;63287.88;5008175;28;20052;-52
2021/11/27 01:13:00;;;;;;;4.00;2.88;;;;;;;-140.79;100.00;63287.88;5030949;28;20038;-53
2021/11/27 01:15:29;;;;;;;3.50;2.70;;;;;;;-140.79;100.00;63287.88;5019341;28;20088;-52
2021/11/27 01:17:54;;;;;;;3.83;2.80;;;;;;;-140.79;100.00;63287.88;5018435;28;20038;-52
2021/11/27 01:20:23;;;;;;;3.58;2.55;;;;;;;-140.79;100.00;63287.88;5012867;28;20034;-52
2021/11/27 01:22:49;;;;;;;4.28;2.95;;;;;;;-140.79;100.00;63287.88;5008864;28;20065;-52
2021/11/27 01:25:14;;;;;;;3.85;2.90;;;;;;;-140.79;100.00;63287.88;5010997;28;20038;-52
2021/11/27 01:27:40;;;;;;;3.75;2.50;;;;;;;-140.79;100.00;63287.88;5028139;28;20093;-53
2021/11/27 01:30:07;;;;;;;3.75;2.80;;;;;;;-140.79;100.00;63287.88;5024817;28;20025;-52
2021/11/27 01:32:32;;;;;;;3.95;2.90;;;;;;;-140.79;100.00;63287.88;5024478;28;20060;-52
2021/11/27 01:34:57;;;;;;;3.90;2.83;;;;;;;-140.79;100.00;63287.88;5022682;28;20490;-52
2021/11/27 01:37:27;;;;;;;4.28;2.88;;;;;;;-140.79;100.00;63287.88;5024194;28;20025;-52
2021/11/27 01:39:53;;;;;;;4.68;3.13;;;;;;;-140.79;100.00;63287.88;5024104;28;20112;-52
2021/11/27 01:42:21;;;;;;;3.78;2.50;;;;;;;-140.79;100.00;63287.88;5024829;28;20095;-52
2021/11/27 01:44:53;;;;;;;4.13;2.83;;;;;;;-140.79;100.00;63287.88;5024643;28;20029;-52
2021/11/27 01:47:18;;;;;;;3.33;2.63;;;;;;;-140.79;100.00;63287.88;5020700;28;20021;-50
2021/11/27 01:49:44;;;;;;;3.65;2.70;;;;;;;-140.79;100.00;63287.88;5022454;28;20030;-51
2021/11/27 01:52:09;;;;;;;3.65;2.53;;;;;;;-140.79;100.00;63287.88;5022398;28;20631;-51
2021/11/27 01:54:35;;;;;;;3.95;2.42;;;;;;;-140.79;100.00;63287.88;5022683;28;20083;-51
2021/11/27 01:57:01;;;;;;;3.83;2.47;;;;;;;-140.79;100.00;63287.88;5022972;28;20061;-53
2021/11/27 01:59:28;;;;;;;4.43;2.50;;;;;;;-140.79;100.00;63287.88;5023586;28;20033;-53
2021/11/27 02:01:54;;;;;;;3.17;2.45;;;;;;;-140.79;100.00;63287.88;5023242;28;20040;-53
2021/11/27 02:04:19;;;;;;;3.45;2.47;;;;;;;-140.79;100.00;63287.88;5023638;28;20041;-53
2021/11/27 02:06:45;;;;;;;3.65;2.55;;;;;;;-140.79;100.00;63287.88;5008423;28;20160;-51
2021/11/27 02:09:16;;;;;;;3.45;2.38;;;;;;;-140.79;100.00;63287.88;5018833;28;20038;-53
2021/11/27 02:11:42;;;;;;;3.10;2.40;;;;;;;-140.79;100.00;63287.88;5003435;28;20018;-53
2021/11/27 02:14:08;;;;;;;3.30;2.45;;;;;;;-140.79;100.00;63287.88;5003685;28;20033;-54
2021/11/27 02:16:34;;;;;;;3.15;2.50;;;;;;;-140.79;100.00;63287.88;5003540;28;20041;-53
2021/11/27 02:18:59;;;;;;;3.63;2.53;;;;;;;-140.79;100.00;63287.88;5003251;28;20508;-51
2021/11/27 02:21:25;;;;;;;2.83;2.25;;;;;;;-140.79;100.00;63287.88;5003626;28;20049;-51
2021/11/27 02:23:51;;;;;;;4.20;2.75;;;;;;;-140.79;100.00;63287.88;5003767;28;20060;-51
2021/11/27 02:26:18;;;;;;;3.05;2.45;;;;;;;-140.79;100.00;63287.88;5003587;28;20026;-51
2021/11/27 02:28:47;;;;;;;4.50;2.65;;;;;;;-140.79;100.00;63287.88;5003737;28;20037;-52
2021/11/27 02:31:12;;;;;;;3.72;2.53;;;;;;;-140.79;100.00;63287.88;5003401;28;20084;-52
2021/11/27 02:33:37;;;;;;;2.83;2.10;;;;;;;-140.79;100.00;63287.88;5003624;28;20092;-52
2021/11/27 02:36:04;;;;;;;3.63;2.40;;;;;;;-140.79;100.00;63287.88;5003760;28;20046;-51
2021/11/27 02:38:29;;;;;;;3.22;2.35;;;;;;;-140.79;100.00;63287.88;5003604;28;20088;-52
2021/11/27 02:40:54;;;;;;;3.75;2.30;;;;;;;-140.79;100.00;63287.88;5003667;28;20033;-51
2021/11/27 02:43:20;;;;;;;3.33;2.30;;;;;;;-140.79;100.00;63287.88;5003432;28;20500;-52
2021/11/27 02:45:45;;;;;;;2.65;2.10;;;;;;;-140.79;100.00;63287.88;5013353;28;20061;-52
2021/11/27 02:48:11;;;;;;;2.38;2.00;;;;;;;-140.79;100.00;63287.88;5027153;28;20033;-52
2021/11/27 02:50:37;;;;;;;3.33;2.03;;;;;;;-140.79;100.00;63287.88;5027035;28;20489;-52
2021/11/27 02:53:02;;;;;;;3.25;1.95;;;;;;;-140.79;100.00;63287.88;5042306;28;20106;-51
2021/11/27 02:55:28;;;;;;;2.92;2.08;;;;;;;-140.79;100.00;63287.88;5027403;28;20959;-52
2021/11/27 02:57:53;;;;;;;3.05;2.20;;;;;;;-140.79;100.00;63287.88;5027086;28;20482;-51
2021/11/27 03:00:20;;;;;;;2.65;2.00;;;;;;;-140.79;100.00;63287.88;5027378;28;20408;-52
2021/11/27 03:02:46;;;;;;;2.85;2.17;;;;;;;-140.79;100.00;63287.88;5026930;28;20032;-51
2021/11/27 03:05:12;;;;;;;3.22;2.20;;;;;;;-140.79;100.00;63287.88;5024926;28;20029;-52
2021/11/27 03:07:37;;;;;;;3.33;2.00;;;;;;;-140.79;100.00;63287.88;5007185;28;20630;-52
2021/11/27 03:10:04;;;;;;;3.45;2.20;;;;;;;-140.79;100.00;63287.88;5007036;28;20060;-51
2021/11/27 03:12:30;;;;;;;2.83;2.28;;;;;;;-140.79;100.00;63287.88;5007257;28;20125;-52
2021/11/27 03:14:55;;;;;;;2.67;2.03;;;;;;;-140.79;100.00;63287.88;5007081;28;20030;-52
2021/11/27 03:17:20;;;;;;;2.38;2.03;;;;;;;-140.79;100.00;63287.88;5025123;28;20048;-51
2021/11/27 03:19:46;;;;;;;2.72;2.00;;;;;;;-140.79;100.00;63287.88;5020067;28;20169;-52
2021/11/27 03:22:12;;;;;;;2.38;1.77;;;;;;;-140.79;100.00;63287.88;5007047;28;20535;-52
2021/11/27 03:24:37;;;;;;;3.40;2.15;;;;;;;-140.79;100.00;63287.88;5006975;28;20026;-50
2021/11/27 03:27:03;;;;;;;3.15;1.73;;;;;;;-140.79;100.00;63287.88;5006552;28;20033;-52
2021/11/27 03:29:29;;;;;;;2.88;2.00;;;;;;;-140.79;100.00;63287.88;5006858;28;20061;-52
2021/11/27 03:31:59;;;;;;;2.75;2.00;;;;;;;-140.79;100.00;63287.88;5006637;28;20488;-53
2021/11/27 03:34:25;;;;;;;;;;;;;;;-140.79;100.00;63287.88;5007264;28;20551;-52
2021/11/27 03:36:50;;;;;;;2.45;1.70;;;;;;;-140.79;100.00;63287.88;5007006;28;20016;-52
2021/11/27 03:39:16;;;;;;;2.70;1.67;;;;;;;-140.79;100.00;63287.88;5006745;28;20029;-53
2021/11/27 03:41:41;;;;;;;2.97;2.25;;;;;;;-140.79;100.00;63287.88;5006759;28;20030;-52
2021/11/27 03:44:07;;;;;;;2.42;1.70;;;;;;;-140.79;100.00;63287.88;5006671;28;20030;-52
2021/11/27 03:46:32;;;;;;;2.55;1.70;;;;;;;-140.79;100.00;63287.88;5034524;28;20026;-53
2021/11/27 03:48:58;;;;;;;2.38;1.90;;;;;;;-140.79;100.00;63287.88;5026390;28;20053;-52
2021/11/27 03:51:25;;;;;;;2.78;2.00;;;;;;;-140.79;100.00;63287.88;5025989;28;20029;-52
2021/11/27 03:53:51;;;;;;;2.72;1.90;;;;;;;-140.79;100.00;63287.88;5026235;28;20136;-52
2021/11/27 03:56:19;;;;;;;3.25;1.85;;;;;;;-140.79;100.00;63287.88;5024962;28;20048;-52
2021/11/27 03:58:44;;;;;;;2.58;1.70;;;;;;;-140.79;100.00;63287.88;5025815;28;20156;-52
2021/11/27 04:01:13;;;;;;;2.42;1.70;;;;;;;-140.79;100.00;63287.88;5041025;28;20552;-51
2021/11/27 04:03:39;;;;;;;3.13;1.70;;;;;;;-140.79;100.00;63287.88;5025799;28;20037;-52
2021/11/27 04:06:05;;;;;;;2.67;1.88;;;;;;;-140.79;100.00;63287.88;5016545;28;20041;-52
2021/11/27 04:08:30;;;;;;;2.05;1.73;;;;;;;-140.79;100.00;63287.88;5006069;28;20033;-53
2021/11/27 04:10:56;;;;;;;2.00;1.63;;;;;;;-140.79;100.00;63287.88;5005560;28;20116;-51
2021/11/27 04:13:21;;;;;;;2.55;1.58;;;;;;;-140.79;100.00;63287.88;5005704;28;20033;-51
2021/11/27 04:15:47;;;;;;;2.13;1.58;;;;;;;-140.79;100.00;63287.88;5005932;28;20022;-52
2021/11/27 04:18:13;;;;;;;1.95;1.60;;;;;;;-140.79;100.00;63287.88;5005736;28;21359;-52
2021/11/27 04:20:39;;;;;;;2.40;1.50;;;;;;;-140.79;100.00;63287.88;5005721;28;20092;-52
2021/11/27 04:23:04;;;;;;;1.90;1.50;;;;;;;-140.79;100.00;63287.88;5005511;28;20488;-53
2021/11/27 04:25:30;;;;;;;2.22;1.55;;;;;;;-140.79;100.00;63287.88;5005659;28;20472;-51
2021/11/27 04:27:56;;;;;;;2.08;1.30;;;;;;;-140.79;100.00;63287.88;5005901;28;20105;-52
2021/11/27 04:30:22;;;;;;;2.00;1.50;;;;;;;-140.79;100.00;63287.88;5005627;28;20053;-51
2021/11/27 04:32:50;;;;;;;1.70;1.60;;;;;;;-140.79;100.00;63287.88;5005495;28;20046;-51
2021/11/27 04:35:15;;;;;;;2.92;1.58;;;;;;;-140.79;100.00;63287.88;5005400;28;20611;-51
2021/11/27 04:37:41;;;;;;;2.85;1.50;;;;;;;-140.79;100.00;63287.88;5005598;28;20108;-51
2021/11/27 04:40:07;;;;;;;2.03;1.30;;;;;;;-140.79;100.00;63287.88;5005381;28;20396;-52
2021/11/27 04:42:33;;;;;;;1.90;1.48;;;;;;;-140.79;100.00;63287.88;5005453;28;20041;-51
2021/11/27 04:45:00;;;;;;;2.60;1.67;;;;;;;-140.79;100.00;63287.88;5005456;28;20474;-51
2021/11/27 04:47:25;;;;;;;2.00;1.40;;;;;;;-140.79;100.00;63287.88;5005245;28;20026;-51
2021/11/27 04:49:51;;;;;;;2.13;1.77;;;;;;;-140.79;100.00;63287.88;5005125;28;20026;-51
2021/11/27 04:52:16;;;;;;;2.10;1.30;;;;;;;-140.79;100.00;63287.88;5004923;28;20025;-50
2021/11/27 04:54:42;;;;;;;3.17;1.65;;;;;;;-140.79;100.00;63287.88;5005056;28;20029;-51
2021/11/27 04:57:07;;;;;;;2.17;1.15;;;;;;;-140.79;100.00;63287.88;5019710;28;20096;-52
2021/11/27 04:59:33;;;;;;;1.88;1.20;;;;;;;-140.79;100.00;63287.88;5005154;28;20030;-52
2021/11/27 05:01:58;;;;;;;2.22;1.30;;;;;;;-140.79;100.00;63287.88;5004951;28;20037;-52
2021/11/27 05:04:24;;;;;;;2.08;1.20;;;;;;;-140.79;100.00;63287.88;5004839;28;20025;-51
2021/11/27 05:06:49;;;;;;;2.80;1.40;;;;;;;-140.79;100.00;63287.88;5019332;28;20099;-52
2021/11/27 05:09:15;;;;;;;2.63;1.20;;;;;;;-140.79;100.00;63287.88;5006279;28;20404;-52
2021/11/27 05:11:40;;;;;;;2.20;1.38;;;;;;;-140.79;100.00;63287.88;5004978;28;20030;-50
2021/11/27 05:14:06;;;;;;;1.77;1.20;;;;;;;-140.79;100.00;63287.88;5004887;28;20464;-53
2021/11/27 05:16:31;;;;;;;2.42;1.27;;;;;;;-140.79;100.00;63287.88;5004847;28;20092;-51
2021/11/27 05:18:57;;;;;;;1.65;1.30;;;;;;;-140.79;100.00;63287.88;5020233;28;20068;-51
2021/11/27 05:21:22;;;;;;;2.75;1.50;;;;;;;-140.79;100.00;63287.88;5024046;28;20423;-51
2021/11/27 05:23:48;;;;;;;1.65;1.30;;;;;;;-140.79;100.00;63287.88;5024388;28;20470;-53
2021/11/27 05:26:13;;;;;;;2.22;1.40;;;;;;;-140.79;100.00;63287.88;5019551;28;20041;-51
2021/11/27 05:28:39;;;;;;;1.33;1.05;;;;;;;-140.79;100.00;63287.88;5004528;28;20030;-51
2021/11/27 05:31:04;;;;;;;2.17;1.23;;;;;;;-140.79;100.00;63287.88;5004297;28;20728;-51
2021/11/27 05:36:17;;;;;;;1.67;1.25;;;;;;;-140.79;100.00;63287.88;5004365;28;20061;-53
2021/11/27 05:38:44;;;;;;;1.88;1.17;;;;;;;-140.79;100.00;63287.88;5004554;28;20040;-53
2021/11/27 05:41:09;;;;;;;1.88;1.05;;;;;;;-140.79;100.00;63287.88;5019303;28;20037;-52
2021/11/27 05:43:34;;;;;;;1.52;1.10;;;;;;;-140.79;100.00;63287.88;5019287;28;20026;-52
2021/11/27 05:46:00;;;;;;;2.58;1.10;;;;;;;-140.79;100.00;63287.88;5004345;28;20571;-52
2021/11/27 05:48:25;;;;;;;2.25;1.20;;;;;;;-140.79;100.00;63287.88;5014416;28;20035;-52
2021/11/27 05:50:51;;;;;;;3.22;1.27;;;;;;;-140.79;100.00;63287.88;5008924;28;20056;-51
2021/11/27 05:53:18;;;;;;;1.52;1.00;;;;;;;-140.79;100.00;63287.88;5003912;28;20044;-52
2021/11/27 05:55:46;;;;;;;1.80;0.75;;;;;;;-140.79;100.00;63287.88;5004215;28;20075;-51
2021/11/27 05:58:12;;;;;;;1.30;0.95;;;;;;;-140.79;100.00;63287.88;5004151;28;20102;-52
2021/11/27 06:00:37;;;;;;;1.80;1.30;;;;;;;-140.79;100.00;63287.88;5003790;28;20125;-51
2021/11/27 06:03:03;;;;;;;1.50;1.10;;;;;;;-140.79;100.00;63287.88;5018925;28;20546;-51
2021/11/27 06:05:29;;;;;;;1.80;1.00;;;;;;;-140.79;100.00;63287.88;5023763;28;20530;-51
2021/11/27 06:07:55;;;;;;;2.63;1.10;;;;;;;-140.79;100.00;63287.88;5029420;28;20025;-53
2021/11/27 06:10:21;;;;;;;1.60;0.90;;;;;;;-140.79;100.00;63287.88;5005714;28;20086;-51
2021/11/27 06:12:46;;;;;;;1.58;0.90;;;;;;;-140.79;100.00;63287.88;5013359;28;20045;-52
2021/11/27 06:15:12;;;;;;;2.22;1.10;;;;;;;-140.79;100.00;63287.88;5007025;28;20030;-53
2021/11/27 06:17:37;;;;;;;2.88;1.05;;;;;;;-140.79;100.00;63287.88;5021772;28;20026;-53
2021/11/27 06:20:03;;;;;;;2.20;0.90;;;;;;;-140.79;100.00;63287.88;5025834;28;20026;-53
2021/11/27 06:22:28;;;;;;;2.38;0.90;;;;;;;-140.79;100.00;63287.88;5018753;28;20061;-52
2021/11/27 06:24:54;;;;;;;1.33;0.90;;;;;;;-140.79;100.00;63287.88;5014971;28;20683;-51
2021/11/27 06:27:19;;;;;;;1.33;0.90;;;;;;;-140.79;100.00;63287.88;5022912;28;20492;-52
2021/11/27 06:29:45;;;;;;;1.88;1.13;;;;;;;-140.79;100.00;63287.88;5041331;28;20025;-52
2021/11/27 06:32:11;;;;;;;2.58;1.10;;;;;;;-140.79;100.00;63287.88;5035404;28;20091;-52
2021/11/27 06:34:38;;;;;;;2.17;0.90;;;;;;;-140.79;100.00;63287.88;5029953;28;20076;-53
2021/11/27 06:37:03;;;;;;;2.03;0.85;;;;;;;-140.79;100.00;63287.88;5023576;28;20042;-53
2021/11/27 06:39:29;;;;;;;2.03;0.82;;;;;;;-140.79;100.00;63287.88;5003060;28;20281;-53
2021/11/27 06:41:56;;;;;;;2.35;0.80;;;;;;;-140.79;100.00;63287.88;5011521;28;20041;-53
2021/11/27 06:44:21;;;;;;;1.83;0.98;;;;;;;-140.79;100.00;63287.88;5027366;28;20079;-52
2021/11/27 06:46:47;;;;;;;1.30;0.90;;;;;;;-140.79;100.00;63287.88;5026755;28;20530;-52
2021/11/27 06:49:14;;;;;;;2.00;0.90;;;;;;;-140.79;100.00;63287.88;5024712;28;20038;-53
2021/11/27 06:51:40;;;;;;;1.00;0.77;;;;;;;-140.79;100.00;63287.88;5024581;28;20034;-52
2021/11/27 06:54:05;;;;;;;1.70;1.10;;;;;;;-140.79;100.00;63287.88;5024839;28;20056;-53
2021/11/27 06:56:36;;;;;;;1.33;0.73;;;;;;;-140.79;100.00;63287.88;5030496;28;20609;-53
2021/11/27 06:59:02;;;;;;;1.10;0.80;;;;;;;-140.79;100.00;63287.88;5042733;28;20038;-52
2021/11/27 07:01:27;;;;;;;1.15;0.77;;;;;;;-140.79;100.00;63287.88;5038878;28;20034;-52
2021/11/27 07:03:53;;;;;;;1.48;0.90;;;;;;;-140.79;100.00;63287.88;5018364;28;20018;-52
2021/11/27 07:06:21;;;;;;;1.85;0.98;;;;;;;-140.79;100.00;63287.88;5018561;28;20030;-53
2021/11/27 07:08:46;;;;;;;1.88;1.20;;;;;;;-140.79;100.00;63287.88;5019762;28;20025;-55
2021/11/27 07:11:12;;;;;;;1.45;0.82;;;;;;;-140.79;100.00;63287.88;5017494;28;20037;-53
2021/11/27 07:13:39;;;;;;;1.60;1.00;;;;;;;-140.79;100.00;63287.88;5014036;28;20050;-53
2021/11/27 07:16:04;;;;;;;1.98;1.08;;;;;;;-140.79;100.00;63287.88;5004845;28;20022;-52
2021/11/27 07:18:30;;;;;;;1.50;0.80;;;;;;;-140.79;100.00;63287.88;5008911;28;20056;-51
2021/11/27 07:20:56;;;;;;;1.45;0.80;;;;;;;-140.79;100.00;63287.88;5010168;28;20022;-53
2021/11/27 07:23:21;;;;;;;1.80;0.80;;;;;;;-140.79;100.00;63287.88;5003426;28;20029;-51
2021/11/27 07:25:47;;;;;;;1.23;0.70;;;;;;;-140.79;100.00;63287.88;5023879;28;20406;-51
2021/11/27 07:28:12;;;;;;;1.30;0.77;;;;;;;-140.79;100.00;63287.88;5019526;28;20086;-51
2021/11/27 07:30:38;;;;;;;2.45;1.55;;;;;;;-140.79;100.00;63287.88;5004723;28;20404;-53
2021/11/27 07:33:03;;;;;;;4.40;1.50;;;;;;;-140.79;100.00;63287.88;5020944;28;20569;-51
2021/11/27 07:35:29;;;;;;;3.72;1.30;;;;;;;-140.79;100.00;63287.88;5025302;28;20021;-52
2021/11/27 07:37:55;;;;;;;6.35;1.35;;;;;;;-140.79;100.00;63287.88;5025921;28;20491;-51
2021/11/27 07:40:20;;;;;;;5.95;1.38;;;;;;;-140.79;100.00;63287.88;5013749;28;20033;-53
2021/11/27 07:42:47;;;;;;;3.20;1.20;;;;;;;-140.79;100.00;63287.88;5016597;28;20029;-52
2021/11/27 07:45:16;;;;;;;2.88;1.30;;;;;;;-140.79;100.00;63287.88;5024470;28;20051;-53
2021/11/27 07:47:41;;;;;;;3.88;1.33;;;;;;;-140.79;100.00;63287.88;5024621;28;20030;-53
2021/11/27 07:50:07;;;;;;;3.05;1.10;;;;;;;-140.79;100.00;63287.88;5016775;28;20211;-53
2021/11/27 07:52:33;;;;;;;2.92;1.15;;;;;;;-140.79;100.00;63287.88;5006226;28;20045;-52
2021/11/27 07:54:58;;;;;;;3.35;1.17;;;;;;;-140.79;100.00;63287.88;5004898;28;20629;-52
2021/11/27 07:57:23;;;;;;;2.65;1.10;;;;;;;-140.79;100.00;63287.88;5005479;28;20546;-51
2021/11/27 07:59:49;;;;;;;2.50;1.13;;;;;;;-140.79;100.00;63287.88;5006499;28;20040;-51
2021/11/27 08:02:14;;;;;;;3.72;1.02;;;;;;;-140.79;100.00;63287.88;5017318;28;20037;-52
2021/11/27 08:04:40;;;;;;;4.03;1.17;;;;;;;-140.79;100.00;63287.88;5017478;28;20667;-52
2021/11/27 08:07:05;;;;;;;3.80;1.10;;;;;;;-140.79;100.00;63287.88;5022522;28;20036;-50
2021/11/27 08:09:31;;;;;;;2.65;1.40;;;;;;;-140.79;100.00;63287.88;5011983;28;20492;-51
2021/11/27 08:11:57;;;;;;;3.38;1.17;;;;;;;-140.79;100.00;63287.88;5018747;28;20360;-52
2021/11/27 08:14:26;;;;;;;2.53;1.42;;;;;;;-140.79;100.00;63287.88;5005316;28;20052;-52
2021/11/27 08:16:52;;;;;;;2.55;1.15;;;;;;;-140.79;100.00;63287.88;5005762;28;20042;-52
2021/11/27 08:19:17;;;;;;;3.17;1.17;;;;;;;-140.79;100.00;63287.88;5022124;28;20092;-52
2021/11/27 08:21:43;;;;;;;2.78;1.10;;;;;;;-140.79;100.00;63287.88;5005118;28;20030;-54
2021/11/27 08:24:08;;;;;;;1.65;0.90;;;;;;;-140.79;100.00;63287.88;5014057;28;20472;-51
2021/11/27 08:26:34;;;;;;;2.95;1.02;;;;;;;-140.79;100.00;63287.88;5023079;28;20472;-51
2021/11/27 08:28:59;;;;;;;1.83;0.90;;;;;;;-140.79;100.00;63287.88;5025032;28;20029;-51
2021/11/27 08:31:25;;;;;;;2.15;1.02;;;;;;;-140.79;100.00;63287.88;5023097;28;20025;-52
2021/11/27 08:33:51;;;;;;;2.70;1.00;;;;;;;-140.79;100.00;63287.88;5005659;28;20022;-51
2021/11/27 08:36:16;;;;;;;1.48;0.90;;;;;;;-140.79;100.00;63287.88;5005223;28;20033;-50
2021/11/27 08:38:42;;;;;;;2.80;1.17;;;;;;;-140.79;100.00;63287.88;5017099;28;20040;-52
2021/11/27 08:41:08;;;;;;;2.15;1.35;;;;;;;-140.79;100.00;63287.88;5015472;28;20037;-51
2021/11/27 08:43:35;;;;;;;2.13;1.08;;;;;;;-140.79;100.00;63287.88;5008117;28;20033;-53
2021/11/27 08:46:01;;;;;;;2.10;1.30;;;;;;;-140.79;100.00;63287.88;5025032;28;20034;-53
2021/11/27 08:48:26;;;;;;;2.35;1.02;;;;;;;-140.79;100.00;63287.88;5025272;28;20396;-53
2021/11/27 08:50:52;;;;;;;3.50;1.05;;;;;;;-140.79;100.00;63287.88;5011027;28;20022;-52
2021/11/27 08:53:17;;;;;;;1.80;1.00;;;;;;;-140.79;100.00;63287.88;5005419;28;20196;-52
2021/11/27 08:55:43;;;;;;;3.42;0.98;;;;;;;-140.79;100.00;63287.88;5005692;28;20033;-53
2021/11/27 08:58:08;;;;;;;2.20;0.90;;;;;;;-140.79;100.00;63287.88;5013297;28;20058;-53
2021/11/27 09:00:34;;;;;;;2.88;1.05;;;;;;;-140.79;100.00;63287.88;5024490;28;20519;-53
2021/11/27 09:02:59;;;;;;;2.38;1.20;;;;;;;-140.79;100.00;63287.88;5025006;28;20087;-53
2021/11/27 09:05:25;;;;;;;2.20;1.20;;;;;;;-140.79;100.00;63287.88;5023120;28;20077;-52
2021/11/27 09:07:51;;;;;;;1.95;1.00;;;;;;;-140.79;100.00;63287.88;5019099;28;20060;-53
2021/11/27 09:10:16;;;;;;;1.55;0.88;;;;;;;-140.79;100.00;63287.88;5010078;28;20120;-53
2021/11/27 09:12:42;;;;;;;1.50;0.80;;;;;;;-140.79;100.00;63287.88;5012673;28;20072;-53
2021/11/27 09:15:08;;;;;;;2.13;1.00;;;;;;;-140.79;100.00;63287.88;5004968;28;20033;-52
2021/11/27 09:17:33;;;;;;;1.73;0.95;;;;;;;-140.79;100.00;63287.88;5004882;28;20030;-53
2021/11/27 09:19:59;;;;;;;1.95;0.90;;;;;;;-140.79;100.00;63287.88;5004635;28;20040;-53
2021/11/27 09:22:24;;;;;;;3.65;1.00;;;;;;;-140.79;100.00;63287.88;5003986;28;20084;-53
2021/11/27 09:24:50;;;;;;;1.60;0.80;;;;;;;-140.79;100.00;63287.88;5018446;28;20065;-51
2021/11/27 09:27:15;;;;;;;2.70;1.17;;;;;;;-140.79;100.00;63287.88;5024307;28;20033;-53
2021/11/27 09:29:41;;;;;;;2.10;0.90;;;;;;;-140.79;100.00;63287.88;5020359;28;20091;-52
2021/11/27 09:32:07;;;;;;;2.90;1.00;;;;;;;-140.79;100.00;63287.88;5004809;28;20037;-52
2021/11/27 09:34:32;;;;;;;2.88;1.00;;;;;;;-140.79;100.00;63287.88;5004741;28;20434;-52
2021/11/27 09:36:58;;;;;;;1.95;0.93;;;;;;;-140.79;100.00;63287.88;5004618;28;20034;-53
2021/11/27 09:39:24;;;;;;;1.55;0.90;;;;;;;-140.79;100.00;63287.88;5017324;28;20455;-52
2021/11/27 09:41:51;;;;;;;1.67;1.00;;;;;;;-140.79;100.00;63287.88;5004673;28;20113;-52
2021/11/27 09:44:19;;;;;;;1.58;0.80;;;;;;;-140.79;100.00;63287.88;5013308;28;20084;-51
2021/11/27 09:46:45;;;;;;;1.90;0.93;;;;;;;-140.79;100.00;63287.88;5023272;28;20040;-53
2021/11/27 09:49:22;;;;;;;1.48;0.70;;;;;;;-140.79;100.00;63287.88;5024406;28;20029;-52
2021/11/27 09:51:49;;;;;;;1.60;0.60;;;;;;;-140.79;100.00;63287.88;5019465;28;20030;-53
2021/11/27 09:54:17;;;;;;;2.20;1.00;;;;;;;-140.79;100.00;63287.88;5004562;28;20021;-52
2021/11/27 09:56:43;;;;;;;1.77;0.70;;;;;;;-140.79;100.00;63287.88;5004404;28;20128;-53
2021/11/27 09:59:09;;;;;;;1.40;0.80;;;;;;;-140.79;100.00;63287.88;5003749;28;20103;-52
2021/11/27 10:01:36;;;;;;;1.95;1.00;;;;;;;-140.79;100.00;63287.88;5004072;28;20033;-53
2021/11/27 10:04:06;;;;;;;2.55;0.82;;;;;;;-140.79;100.00;63287.88;5010851;28;20040;-52
2021/11/27 10:06:37;;;;;;;1.90;0.90;;;;;;;-140.79;100.00;63287.88;5039136;28;20041;-52
2021/11/27 10:09:05;;;;;;;1.90;0.80;;;;;;;-140.79;100.00;63287.88;5008968;28;20037;-52
2021/11/27 10:11:30;;;;;;;2.28;0.90;;;;;;;-140.79;100.00;63287.88;5003438;28;20233;-53
2021/11/27 10:13:56;;;;;;;1.55;1.00;;;;;;;-140.79;100.00;63287.88;5003389;28;20036;-52
2021/11/27 10:16:21;;;;;;;1.70;1.13;;;;;;;-140.79;100.00;63287.88;5003896;28;20026;-52
2021/11/27 10:19:07;;;;;;;1.92;0.85;;;;;;;-140.79;100.00;63287.88;5004192;28;20144;-52
2021/11/27 10:21:32;;;;;;;2.03;0.90;;;;;;;-140.79;100.00;63287.88;5004016;28;20022;-51
2021/11/27 10:23:59;;;;;;;2.40;1.00;;;;;;;-140.79;100.00;63287.88;5004375;28;20026;-52
2021/11/27 10:26:36;;;;;;;1.52;0.90;;;;;;;-140.79;100.00;63287.88;5004488;28;20026;-51
2021/11/27 10:29:32;;;;;;;1.90;1.00;;;;;;;-140.79;100.00;63287.88;5004185;28;20026;-52
2021/11/27 10:32:09;;;;;;;2.15;0.70;;;;;;;-140.79;100.00;63287.88;5004046;28;20026;-52
2021/11/27 10:34:34;;;;;;;2.80;1.10;;;;;;;-140.79;100.00;63287.88;5003397;28;20385;-54
2021/11/27 10:37:00;;;;;;;1.65;0.90;;;;;;;-140.79;100.00;63287.88;5003951;28;20499;-52
2021/11/27 10:39:25;;;;;;;2.17;0.90;;;;;;;-140.79;100.00;63287.88;5021781;28;20064;-53
2021/11/27 10:42:05;;;;;;;2.03;0.63;;;;;;;-140.79;100.00;63287.88;5023874;28;20057;-52
2021/11/27 10:44:37;;;;;;;1.45;0.85;;;;;;;-140.79;100.00;63287.88;5012804;28;20030;-52
2021/11/27 10:47:13;;;;;;;1.60;0.73;;;;;;;-140.79;100.00;63287.88;5018819;28;20033;-56
2021/11/27 10:49:39;;;;;;;2.17;0.85;;;;;;;-140.79;100.00;63287.88;5023275;28;20715;-52
2021/11/27 10:52:06;;;;;;;1.33;0.70;;;;;;;-140.79;100.00;63287.88;5016964;28;20044;-52
2021/11/27 10:54:52;;;;;;;1.40;0.82;;;;;;;-140.79;100.00;63287.88;5004245;28;20034;-52
2021/11/27 10:57:36;;;;;;;1.73;1.00;;;;;;;-140.79;100.00;63287.88;5003999;28;20443;-52
2021/11/27 11:00:10;;;;;;;1.23;0.70;;;;;;;-140.79;100.00;63287.88;5023595;28;21039;-53
2021/11/27 11:02:37;;;;;;;1.30;0.70;;;;;;;-140.79;100.00;63287.88;5023644;28;20025;-52
2021/11/27 11:05:10;;;;;;;1.98;1.10;;;;;;;-140.79;100.00;63287.88;5008570;28;20091;-53
2021/11/27 11:07:36;;;;;;;1.52;0.82;;;;;;;-140.79;100.00;63287.88;5007624;28;20028;-53
2021/11/27 11:10:21;;;;;;;1.80;0.90;;;;;;;-140.79;100.00;63287.88;5010873;28;20030;-53